createdAt,value
2019-03-05T00:00:50.455Z,0.80
2019-03-05T00:03:19.650Z,1.03
2019-03-05T00:05:48.935Z,1.00
2019-03-05T00:08:22.720Z,0.80
2019-03-05T00:10:51.950Z,0.90
2019-03-05T00:13:21.140Z,0.90
2019-03-05T00:15:51.408Z,1.03
2019-03-05T00:18:20.589Z,0.80
2019-03-05T00:20:49.787Z,0.80
2019-03-05T00:23:28.076Z,1.10
2019-03-05T00:25:57.273Z,1.00
2019-03-05T00:28:38.315Z,1.07
2019-03-05T00:31:16.411Z,0.90
2019-03-05T00:33:54.935Z,1.50
2019-03-05T00:36:33.172Z,1.17
2019-03-05T00:39:23.803Z,0.90
2019-03-05T00:42:11.331Z,1.33
2019-03-05T00:45:05.105Z,0.90
2019-03-05T00:47:46.693Z,0.87
2019-03-05T00:50:22.047Z,0.90
2019-03-05T00:53:09.596Z,0.67
2019-03-05T00:55:44.947Z,0.90
2019-03-05T00:58:20.012Z,1.27
2019-03-05T01:00:55.288Z,0.60
2019-03-05T01:03:45.824Z,0.90
2019-03-05T01:06:16.861Z,0.90
2019-03-05T01:08:46.830Z,0.77
2019-03-05T01:11:16.243Z,0.73
2019-03-05T01:13:45.538Z,0.60
2019-03-05T01:16:16.359Z,0.60
2019-03-05T01:18:45.543Z,1.00
2019-03-05T01:21:14.742Z,1.33
2019-03-05T01:23:43.945Z,1.10
2019-03-05T01:26:13.165Z,1.20
2019-03-05T01:28:42.349Z,1.27
2019-03-05T01:31:21.821Z,0.73
2019-03-05T01:33:58.326Z,0.70
2019-03-05T01:36:34.895Z,0.60
2019-03-05T01:39:16.612Z,0.77
2019-03-05T01:41:45.873Z,1.03
2019-03-05T01:44:15.124Z,1.00
2019-03-05T01:46:44.314Z,1.00
2019-03-05T01:49:13.479Z,1.03
2019-03-05T01:51:42.678Z,0.87
2019-03-05T01:54:11.869Z,0.70
2019-03-05T01:56:41.048Z,1.20
2019-03-05T01:59:10.235Z,0.90
2019-03-05T02:01:39.435Z,0.80
2019-03-05T02:04:08.619Z,2.23
2019-03-05T02:06:37.805Z,1.20
2019-03-05T02:09:09.120Z,1.07
2019-03-05T02:11:38.363Z,1.17
2019-03-05T02:14:07.707Z,0.90
2019-03-05T02:16:36.916Z,1.13
2019-03-05T02:19:34.293Z,1.10
2019-03-05T02:22:03.861Z,0.80
2019-03-05T02:24:55.936Z,1.00
2019-03-05T02:27:57.267Z,1.10
2019-03-05T02:30:41.764Z,1.00
2019-03-05T02:33:40.031Z,1.30
2019-03-05T02:36:21.227Z,1.70
2019-03-05T02:39:11.703Z,1.20
2019-03-05T02:41:53.258Z,0.90
2019-03-05T02:44:31.563Z,1.37
2019-03-05T02:47:20.685Z,1.27
2019-03-05T02:50:05.021Z,1.27
2019-03-05T02:52:46.396Z,1.50
2019-03-05T02:55:35.853Z,1.30
2019-03-05T02:58:04.093Z,1.37
2019-03-05T03:00:37.870Z,1.30
2019-03-05T03:03:08.889Z,1.00
2019-03-05T03:05:42.856Z,1.17
2019-03-05T03:08:12.100Z,1.07
2019-03-05T03:10:41.337Z,1.10
2019-03-05T03:13:10.599Z,1.20
2019-03-05T03:15:39.786Z,0.97
2019-03-05T03:18:08.981Z,1.07
2019-03-05T03:20:38.180Z,1.37
2019-03-05T03:23:07.354Z,1.20
2019-03-05T03:25:36.562Z,0.93
2019-03-05T03:28:05.731Z,1.10
2019-03-05T03:30:35.003Z,0.97
2019-03-05T03:33:04.194Z,1.27
2019-03-05T03:35:33.399Z,1.03
2019-03-05T03:38:02.559Z,1.10
2019-03-05T03:40:31.751Z,0.90
2019-03-05T03:43:00.937Z,1.07
2019-03-05T03:45:30.153Z,0.90
2019-03-05T03:47:59.322Z,1.23
2019-03-05T03:50:28.524Z,0.90
2019-03-05T03:52:57.722Z,1.10
2019-03-05T03:55:27.006Z,1.23
2019-03-05T03:57:56.148Z,1.00
2019-03-05T04:00:25.422Z,0.90
2019-03-05T04:02:54.745Z,1.00
2019-03-05T04:05:23.936Z,0.80
2019-03-05T04:07:53.112Z,1.20
2019-03-05T04:10:22.311Z,0.90
2019-03-05T04:12:51.494Z,0.97
2019-03-05T04:15:20.724Z,1.10
2019-03-05T04:17:49.946Z,1.50
2019-03-05T04:20:21.233Z,0.97
2019-03-05T04:22:50.405Z,1.20
2019-03-05T04:25:19.605Z,0.90
2019-03-05T04:27:48.785Z,1.40
2019-03-05T04:30:17.989Z,1.30
2019-03-05T04:32:47.180Z,1.10
2019-03-05T04:35:16.374Z,1.00
2019-03-05T04:37:45.672Z,0.80
2019-03-05T04:40:14.843Z,0.87
2019-03-05T04:42:44.039Z,1.13
2019-03-05T04:45:51.996Z,1.20
2019-03-05T04:48:21.171Z,1.10
2019-03-05T04:50:54.926Z,1.00
2019-03-05T04:53:24.097Z,0.97
2019-03-05T04:55:53.302Z,1.00
2019-03-05T04:58:22.480Z,1.20
2019-03-05T05:00:51.672Z,0.80
2019-03-05T05:03:20.845Z,0.90
2019-03-05T05:05:50.039Z,1.07
2019-03-05T05:08:19.218Z,1.10
2019-03-05T05:10:48.413Z,1.00
2019-03-05T05:13:17.615Z,0.80
2019-03-05T05:15:46.799Z,0.90
2019-03-05T05:18:16.055Z,0.90
2019-03-05T05:20:45.241Z,0.77
2019-03-05T05:23:14.432Z,1.23
2019-03-05T05:25:43.608Z,0.90
2019-03-05T05:28:12.805Z,1.00
2019-03-05T05:30:42.452Z,0.80
2019-03-05T05:33:11.652Z,1.30
2019-03-05T05:35:40.826Z,1.00
2019-03-05T05:38:10.043Z,0.80
2019-03-05T05:40:41.370Z,2.07
2019-03-05T05:43:13.561Z,1.07
2019-03-05T05:45:44.830Z,1.13
2019-03-05T05:48:14.059Z,1.10
2019-03-05T05:50:43.270Z,1.03
2019-03-05T05:53:12.460Z,0.97
2019-03-05T05:55:41.642Z,1.30
2019-03-05T05:58:10.838Z,0.80
2019-03-05T06:00:44.418Z,1.00
2019-03-05T06:03:13.615Z,1.03
2019-03-05T06:05:42.858Z,0.93
2019-03-05T06:08:12.068Z,1.37
2019-03-05T06:10:41.233Z,0.83
2019-03-05T06:13:10.475Z,0.80
2019-03-05T06:15:39.753Z,1.00
2019-03-05T06:18:08.982Z,0.77
2019-03-05T06:20:38.251Z,0.90
2019-03-05T06:23:07.488Z,1.00
2019-03-05T06:25:36.740Z,0.77
2019-03-05T06:28:06.082Z,1.00
2019-03-05T06:30:41.003Z,0.90
2019-03-05T06:33:10.193Z,0.80
2019-03-05T06:35:39.445Z,0.73
2019-03-05T06:38:08.646Z,0.80
2019-03-05T06:40:37.842Z,0.77
2019-03-05T06:43:07.053Z,1.03
2019-03-05T06:45:36.228Z,0.93
2019-03-05T06:48:05.423Z,0.67
2019-03-05T06:50:34.728Z,0.83
2019-03-05T06:53:03.865Z,1.00
2019-03-05T06:55:33.062Z,0.90
2019-03-05T06:58:02.269Z,0.90
2019-03-05T07:00:37.474Z,0.83
2019-03-05T07:03:08.107Z,1.07
2019-03-05T07:06:14.128Z,0.83
2019-03-05T07:08:57.944Z,1.00
2019-03-05T07:11:42.198Z,1.23
2019-03-05T07:14:31.113Z,0.97
2019-03-05T07:17:20.009Z,1.00
2019-03-05T07:20:04.358Z,1.13
2019-03-05T07:22:42.415Z,1.30
2019-03-05T07:25:11.614Z,1.13
2019-03-05T07:27:40.879Z,1.10
2019-03-05T07:30:15.738Z,1.30
2019-03-05T07:32:44.966Z,1.40
2019-03-05T07:35:16.153Z,1.97
2019-03-05T07:37:45.349Z,1.20
2019-03-05T07:40:14.535Z,1.27
2019-03-05T07:42:43.733Z,1.20
2019-03-05T07:45:12.912Z,1.60
2019-03-05T07:47:42.113Z,1.10
2019-03-05T07:50:12.344Z,1.20
2019-03-05T07:52:41.576Z,1.07
2019-03-05T07:55:14.018Z,1.37
2019-03-05T07:57:43.379Z,1.13
2019-03-05T08:00:15.012Z,1.80
2019-03-05T08:02:44.215Z,1.67
2019-03-05T08:05:14.494Z,1.03
2019-03-05T08:07:43.696Z,1.00
2019-03-05T08:10:27.828Z,1.20
2019-03-05T08:13:09.230Z,1.47
2019-03-05T08:16:01.881Z,1.47
2019-03-05T08:18:22.623Z,1.57
2019-03-05T08:20:51.805Z,2.00
2019-03-05T08:23:21.017Z,1.67
2019-03-05T08:25:50.219Z,1.60
2019-03-05T08:28:19.422Z,2.30
2019-03-05T08:30:48.599Z,1.77
2019-03-05T08:33:17.861Z,1.80
2019-03-05T08:35:47.033Z,2.07
2019-03-05T08:38:16.235Z,1.90
2019-03-05T08:40:45.415Z,1.80
2019-03-05T08:43:14.623Z,1.57
2019-03-05T08:45:43.811Z,1.90
2019-03-05T08:48:13.009Z,1.90
2019-03-05T08:50:42.205Z,1.70
2019-03-05T08:53:11.413Z,2.00
2019-03-05T08:55:40.619Z,2.17
2019-03-05T08:58:09.820Z,1.77
2019-03-05T09:00:39.003Z,2.03
2019-03-05T09:03:08.207Z,1.77
2019-03-05T09:05:37.407Z,1.53
2019-03-05T09:08:06.611Z,1.80
2019-03-05T09:10:35.790Z,1.87
2019-03-05T09:13:05.928Z,1.70
2019-03-05T09:15:35.126Z,1.73
2019-03-05T09:18:04.309Z,1.70
2019-03-05T09:20:33.590Z,1.60
2019-03-05T09:23:02.814Z,1.60
2019-03-05T09:25:32.138Z,1.70
2019-03-05T09:28:01.328Z,2.30
2019-03-05T09:30:30.542Z,2.80
2019-03-05T09:32:59.722Z,1.83
2019-03-05T09:35:28.926Z,1.50
2019-03-05T09:37:58.112Z,1.60
2019-03-05T09:40:32.148Z,1.50
2019-03-05T09:43:01.320Z,1.93
2019-03-05T09:45:30.628Z,2.07
2019-03-05T09:47:59.910Z,2.07
2019-03-05T09:50:31.871Z,2.07
2019-03-05T09:53:00.043Z,2.40
2019-03-05T09:55:30.883Z,2.47
2019-03-05T09:58:07.944Z,1.70
2019-03-05T10:00:31.445Z,1.73
2019-03-05T10:03:00.631Z,1.80
2019-03-05T10:05:29.848Z,1.63
2019-03-05T10:07:59.053Z,1.90
2019-03-05T10:10:29.157Z,2.30
2019-03-05T10:12:58.970Z,2.00
2019-03-05T10:15:28.737Z,1.60
2019-03-05T10:17:57.941Z,1.60
2019-03-05T10:20:31.825Z,0.83
2019-03-05T10:23:00.988Z,1.00
2019-03-05T10:25:30.177Z,0.40
2019-03-05T10:27:59.449Z,0.87
2019-03-05T10:30:33.324Z,1.03
2019-03-05T10:33:06.865Z,1.77
2019-03-05T10:35:36.065Z,1.20
2019-03-05T10:38:06.193Z,0.70
2019-03-05T10:40:47.863Z,0.70
2019-03-05T10:43:17.679Z,1.00
2019-03-05T10:45:47.625Z,1.10
2019-03-05T10:48:24.575Z,0.70
2019-03-05T10:50:53.783Z,0.63
2019-03-05T10:53:22.969Z,0.80
2019-03-05T10:55:52.155Z,0.60
2019-03-05T10:58:32.850Z,0.70
2019-03-05T11:00:54.087Z,0.60
2019-03-05T11:03:24.399Z,0.53
2019-03-05T11:05:53.599Z,0.60
2019-03-05T11:08:24.613Z,0.50
2019-03-05T11:10:54.183Z,0.70
2019-03-05T11:13:23.357Z,0.80
2019-03-05T11:16:00.584Z,1.30
2019-03-05T11:18:30.189Z,0.60
2019-03-05T11:20:59.515Z,0.67
2019-03-05T11:23:28.709Z,0.70
2019-03-05T11:25:57.917Z,0.53
2019-03-05T11:28:27.213Z,0.60
2019-03-05T11:30:56.571Z,0.60
2019-03-05T11:33:25.785Z,0.60
2019-03-05T11:35:54.982Z,0.50
2019-03-05T11:38:24.168Z,0.60
2019-03-05T11:40:53.362Z,0.57
2019-03-05T11:43:22.558Z,0.70
2019-03-05T11:45:51.755Z,0.50
2019-03-05T11:48:20.932Z,0.40
2019-03-05T11:50:51.580Z,0.53
2019-03-05T11:53:20.954Z,0.33
2019-03-05T11:55:50.148Z,0.30
2019-03-05T11:58:19.321Z,0.30
2019-03-05T12:00:53.190Z,0.30
2019-03-05T12:03:22.375Z,0.50
2019-03-05T12:05:51.566Z,0.40
2019-03-05T12:08:20.744Z,0.70
2019-03-05T12:10:49.942Z,0.60
2019-03-05T12:13:19.115Z,0.70
2019-03-05T12:15:48.311Z,0.60
2019-03-05T12:18:17.492Z,0.50
2019-03-05T12:20:46.687Z,0.60
2019-03-05T12:23:15.869Z,0.40
2019-03-05T12:25:45.102Z,0.50
2019-03-05T12:28:14.284Z,0.63
2019-03-05T12:30:43.485Z,0.70
2019-03-05T12:33:12.664Z,0.80
2019-03-05T12:35:41.871Z,0.77
2019-03-05T12:38:11.053Z,0.70
2019-03-05T12:40:40.297Z,0.50
2019-03-05T12:43:09.464Z,0.67
2019-03-05T12:45:38.691Z,0.80
2019-03-05T12:48:07.967Z,0.90
2019-03-05T12:50:37.635Z,0.97
2019-03-05T12:53:06.809Z,0.80
2019-03-05T12:55:36.017Z,1.00
2019-03-05T12:58:05.190Z,1.00
2019-03-05T13:00:37.455Z,1.00
2019-03-05T13:03:06.635Z,0.83
2019-03-05T13:05:35.824Z,0.90
2019-03-05T13:08:05.028Z,0.77
2019-03-05T13:10:37.404Z,0.60
2019-03-05T13:13:06.239Z,0.80
2019-03-05T13:15:36.957Z,0.70
2019-03-05T13:18:06.135Z,0.77
2019-03-05T13:20:35.439Z,0.87
2019-03-05T13:23:08.474Z,1.00
2019-03-05T13:25:38.116Z,0.60
2019-03-05T13:28:06.490Z,0.60
2019-03-05T13:30:35.687Z,0.60
2019-03-05T13:33:04.862Z,0.40
2019-03-05T13:35:34.064Z,0.50
2019-03-05T13:38:07.483Z,2.60
2019-03-05T13:40:38.562Z,0.70
2019-03-05T13:43:06.479Z,0.50
2019-03-05T13:45:35.821Z,0.40
2019-03-05T13:48:30.824Z,0.40
2019-03-05T13:51:23.224Z,0.50
2019-03-05T13:54:00.992Z,0.50
2019-03-05T13:57:05.003Z,0.40
2019-03-05T13:59:44.350Z,0.50
2019-03-05T14:02:25.857Z,0.40
2019-03-05T14:05:13.116Z,0.30
2019-03-05T14:08:13.924Z,0.40
2019-03-05T14:10:43.154Z,0.40
2019-03-05T14:13:12.315Z,0.60
2019-03-05T14:15:42.915Z,0.90
2019-03-05T14:18:12.159Z,0.70
2019-03-05T14:20:41.363Z,0.93
2019-03-05T14:23:10.648Z,0.70
2019-03-05T14:25:39.861Z,0.90
2019-03-05T14:28:09.016Z,0.70
2019-03-05T14:30:38.268Z,0.90
2019-03-05T14:33:07.573Z,0.80
2019-03-05T14:35:36.770Z,0.60
2019-03-05T14:38:06.074Z,0.67
2019-03-05T14:40:37.810Z,0.40
2019-03-05T14:43:06.121Z,0.40
2019-03-05T14:45:35.565Z,0.50
2019-03-05T14:48:04.922Z,0.60
2019-03-05T14:50:34.061Z,0.60
2019-03-05T14:53:04.217Z,0.50
2019-03-05T14:55:33.418Z,0.50
2019-03-05T14:58:02.577Z,0.50
2019-03-05T15:00:31.740Z,0.60
2019-03-05T15:03:01.019Z,0.80
2019-03-05T15:05:30.218Z,0.63
2019-03-05T15:07:59.390Z,0.90
2019-03-05T15:10:29.531Z,0.80
2019-03-05T15:12:58.688Z,1.10
2019-03-05T15:15:30.010Z,1.20
2019-03-05T15:17:59.224Z,0.90
2019-03-05T15:20:28.458Z,1.00
2019-03-05T15:22:57.727Z,1.07
2019-03-05T15:25:26.974Z,1.70
2019-03-05T15:27:56.251Z,1.40
2019-03-05T15:30:28.754Z,1.23
2019-03-05T15:32:57.269Z,1.13
2019-03-05T15:35:26.540Z,1.20
2019-03-05T15:37:55.727Z,1.07
2019-03-05T15:40:24.941Z,1.23
2019-03-05T15:42:54.152Z,0.90
2019-03-05T15:45:23.389Z,1.10
2019-03-05T15:47:52.659Z,1.13
2019-03-05T15:50:29.397Z,1.23
2019-03-05T15:52:58.607Z,1.40
2019-03-05T15:55:27.740Z,1.20
2019-03-05T15:57:57.024Z,1.10
2019-03-05T16:00:31.448Z,1.37
2019-03-05T16:03:01.151Z,1.27
2019-03-05T16:05:30.318Z,1.03
2019-03-05T16:08:01.071Z,1.13
2019-03-05T16:10:30.581Z,1.00
2019-03-05T16:12:59.812Z,1.23
2019-03-05T16:15:28.994Z,0.90
2019-03-05T16:18:01.337Z,1.13
2019-03-05T16:20:29.825Z,1.00
2019-03-05T16:22:59.154Z,1.20
2019-03-05T16:25:28.363Z,1.10
2019-03-05T16:27:57.565Z,1.30
2019-03-05T16:30:44.773Z,1.10
2019-03-05T16:33:32.579Z,1.00
2019-03-05T16:36:13.106Z,1.20
2019-03-05T16:38:51.108Z,1.40
2019-03-05T16:41:25.353Z,1.30
2019-03-05T16:44:08.668Z,1.27
2019-03-05T16:46:45.324Z,1.30
2019-03-05T16:49:19.317Z,1.40
2019-03-05T16:51:50.245Z,1.57
2019-03-05T16:54:26.766Z,1.70
2019-03-05T16:57:03.344Z,1.73
2019-03-05T16:59:40.126Z,2.63
2019-03-05T17:02:13.416Z,3.60
2019-03-05T17:04:50.002Z,3.47
2019-03-05T17:07:20.865Z,4.57
2019-03-05T17:10:03.997Z,5.60
2019-03-05T17:12:33.219Z,6.00
2019-03-05T17:15:02.378Z,6.50
2019-03-05T17:17:31.769Z,6.13
2019-03-05T17:20:00.962Z,6.20
2019-03-05T17:22:30.219Z,4.83
2019-03-05T17:24:59.432Z,4.63
2019-03-05T17:27:28.614Z,4.93
2019-03-05T17:29:57.814Z,3.93
2019-03-05T17:32:27.004Z,3.57
2019-03-05T17:34:56.189Z,4.17
2019-03-05T17:37:25.396Z,3.73
2019-03-05T17:39:54.584Z,3.87
2019-03-05T17:42:23.768Z,3.50
2019-03-05T17:44:52.964Z,3.53
2019-03-05T17:47:22.138Z,4.00
2019-03-05T17:49:51.344Z,3.17
2019-03-05T17:52:20.529Z,3.73
2019-03-05T17:54:49.733Z,3.97
2019-03-05T17:57:18.924Z,3.80
2019-03-05T17:59:48.120Z,4.70
2019-03-05T18:02:17.382Z,4.10
2019-03-05T18:04:46.872Z,4.53
2019-03-05T18:07:16.052Z,3.60
2019-03-05T18:09:45.251Z,3.37
2019-03-05T18:12:14.523Z,3.77
2019-03-05T18:14:43.728Z,3.77
2019-03-05T18:17:12.988Z,3.23
2019-03-05T18:19:42.249Z,3.70
2019-03-05T18:22:11.414Z,4.43
2019-03-05T18:24:40.612Z,3.40
2019-03-05T18:27:09.802Z,3.53
2019-03-05T18:29:39.042Z,3.90
2019-03-05T18:32:08.220Z,4.57
2019-03-05T18:34:37.419Z,5.50
2019-03-05T18:37:06.602Z,5.57
2019-03-05T18:39:35.802Z,5.10
2019-03-05T18:42:04.994Z,6.00
2019-03-05T18:44:34.193Z,5.87
2019-03-05T18:47:03.385Z,5.17
2019-03-05T18:49:32.613Z,3.77
2019-03-05T18:52:01.790Z,4.63
2019-03-05T18:54:30.987Z,4.50
2019-03-05T18:57:00.181Z,4.40
2019-03-05T18:59:29.388Z,4.67
2019-03-05T19:01:58.563Z,4.30
2019-03-05T19:04:27.980Z,5.47
2019-03-05T19:06:57.163Z,4.80
2019-03-05T19:09:26.372Z,4.33
2019-03-05T19:11:55.564Z,5.07
2019-03-05T19:14:24.771Z,4.90
2019-03-05T19:16:54.234Z,5.43
2019-03-05T19:19:23.441Z,5.50
2019-03-05T19:21:52.621Z,5.90
2019-03-05T19:24:21.820Z,5.13
2019-03-05T19:26:50.993Z,7.43
2019-03-05T19:29:20.376Z,7.60
2019-03-05T19:31:49.557Z,6.90
2019-03-05T19:34:18.835Z,6.17
2019-03-05T19:36:48.009Z,6.37
2019-03-05T19:39:17.267Z,5.40
2019-03-05T19:41:55.619Z,5.33
2019-03-05T19:44:17.375Z,4.97
2019-03-05T19:46:46.541Z,5.00
2019-03-05T19:49:15.754Z,4.93
2019-03-05T19:51:44.952Z,4.70
2019-03-05T19:54:14.161Z,5.23
2019-03-05T19:56:43.354Z,4.90
2019-03-05T19:59:12.546Z,4.50
2019-03-05T20:01:41.825Z,4.70
2019-03-05T20:04:11.933Z,4.63
2019-03-05T20:06:41.419Z,5.20
2019-03-05T20:09:10.639Z,5.03
2019-03-05T20:11:39.840Z,4.30
2019-03-05T20:14:09.022Z,4.40
2019-03-05T20:16:38.488Z,3.77
2019-03-05T20:19:07.679Z,4.00
2019-03-05T20:21:36.885Z,3.80
2019-03-05T20:24:06.095Z,4.10
2019-03-05T20:26:35.315Z,4.00
2019-03-05T20:29:04.568Z,4.00
2019-03-05T20:31:34.018Z,4.23
2019-03-05T20:34:03.383Z,4.67
2019-03-05T20:36:32.701Z,4.43
2019-03-05T20:39:01.973Z,4.30
2019-03-05T20:41:31.360Z,4.47
2019-03-05T20:44:00.554Z,3.83
2019-03-05T20:46:29.802Z,3.73
2019-03-05T20:48:58.989Z,4.17
2019-03-05T20:51:28.285Z,4.10
2019-03-05T20:53:57.650Z,4.43
2019-03-05T20:56:26.991Z,5.40
2019-03-05T20:58:56.121Z,4.53
2019-03-05T21:01:25.327Z,4.93
2019-03-05T21:03:54.507Z,4.43
2019-03-05T21:06:24.000Z,5.80
2019-03-05T21:08:53.219Z,6.30
2019-03-05T21:11:22.487Z,4.90
2019-03-05T21:13:51.769Z,5.83
2019-03-05T21:16:23.967Z,6.10
2019-03-05T21:18:53.333Z,7.10
2019-03-05T21:21:22.533Z,7.17
2019-03-05T21:23:51.735Z,8.63
2019-03-05T21:26:20.958Z,7.47
2019-03-05T21:28:50.197Z,8.27
2019-03-05T21:31:19.391Z,8.53
2019-03-05T21:33:52.011Z,8.30
2019-03-05T21:36:21.289Z,9.37
2019-03-05T21:38:50.473Z,8.43
2019-03-05T21:41:19.756Z,8.50
2019-03-05T21:43:48.952Z,8.30
2019-03-05T21:46:18.824Z,8.43
2019-03-05T21:48:48.116Z,8.67
2019-03-05T21:51:17.318Z,7.30
2019-03-05T21:53:48.518Z,7.83
2019-03-05T21:56:17.447Z,7.90
2019-03-05T21:58:46.651Z,6.93
2019-03-05T22:01:15.861Z,6.77
2019-03-05T22:03:45.044Z,7.27
2019-03-05T22:06:14.240Z,6.37
2019-03-05T22:08:43.442Z,5.90
2019-03-05T22:11:12.649Z,5.77
2019-03-05T22:13:41.847Z,6.50
2019-03-05T22:16:11.128Z,6.57
2019-03-05T22:18:40.321Z,7.30
2019-03-05T22:21:09.539Z,6.07
2019-03-05T22:23:38.725Z,6.37
2019-03-05T22:26:07.920Z,5.83
2019-03-05T22:28:37.304Z,7.63
2019-03-05T22:31:06.564Z,7.60
2019-03-05T22:33:35.830Z,7.37
2019-03-05T22:36:05.015Z,9.30
2019-03-05T22:38:34.320Z,8.30
2019-03-05T22:41:03.681Z,8.90
2019-03-05T22:43:32.907Z,8.83
2019-03-05T22:46:02.095Z,9.40
2019-03-05T22:48:31.295Z,9.03
2019-03-05T22:51:00.571Z,9.60
2019-03-05T22:53:29.853Z,9.00
2019-03-05T22:55:59.042Z,9.73
2019-03-05T22:58:28.272Z,9.37
2019-03-05T23:01:01.415Z,8.07
2019-03-05T23:03:31.769Z,8.53
2019-03-05T23:06:03.435Z,8.13
2019-03-05T23:08:32.659Z,8.23
2019-03-05T23:11:01.854Z,8.77
2019-03-05T23:13:31.076Z,8.47
2019-03-05T23:16:00.540Z,9.07
2019-03-05T23:18:29.761Z,8.53
2019-03-05T23:20:58.935Z,7.70
2019-03-05T23:23:28.182Z,6.87
2019-03-05T23:25:57.365Z,7.60
2019-03-05T23:28:26.651Z,7.43
2019-03-05T23:30:55.854Z,7.50
2019-03-05T23:33:25.062Z,7.47
2019-03-05T23:35:54.244Z,7.67
2019-03-05T23:38:23.437Z,7.10
2019-03-05T23:40:52.624Z,8.37
2019-03-05T23:43:21.860Z,7.87
2019-03-05T23:45:51.043Z,7.17
2019-03-05T23:48:20.272Z,7.67
2019-03-05T23:50:49.457Z,7.40
2019-03-05T23:53:18.657Z,7.30
2019-03-05T23:55:47.848Z,7.43
2019-03-05T23:58:17.052Z,8.53
